Time;durP1;ratioP1;P1;durP2;ratioP2;P2;SDS_P1;SDS_P2;PMS_P1;PMS_P2;Temp;Humidity;BMP_temperature;BMP_pressure;BME280_temperature;BME280_humidity;BME280_pressure;Samples;Min_cycle;Max_cycle;Signal;HPM_P1;HPM_P2
2022/10/31 00:00:15;;;;;;;0.40;0.40;;;;;;;15.68;72.74;99676.97;5050839;28;20193;-72
2022/10/31 00:02:42;;;;;;;0.40;0.40;;;;;;;15.72;72.78;99675.09;5050477;28;20197;-72
2022/10/31 00:05:09;;;;;;;0.50;0.50;;;;;;;15.73;72.30;99669.00;5051299;28;20199;-71
2022/10/31 00:07:36;;;;;;;0.40;0.40;;;;;;;15.81;71.91;99678.97;5050863;28;20243;-72
2022/10/31 00:10:03;;;;;;;0.60;0.60;;;;;;;15.86;71.59;99682.19;5051061;28;20201;-71
2022/10/31 00:12:31;;;;;;;0.50;0.50;;;;;;;15.88;71.19;99675.19;5051012;28;20193;-72
2022/10/31 00:14:58;;;;;;;0.67;0.67;;;;;;;15.85;71.20;99671.00;5050911;28;20212;-71
2022/10/31 00:17:25;;;;;;;0.40;0.40;;;;;;;15.82;71.27;99665.16;5050940;28;20626;-71
2022/10/31 00:19:52;;;;;;;0.50;0.50;;;;;;;15.83;71.29;99662.50;5050567;28;20627;-72
2022/10/31 00:22:18;;;;;;;0.57;0.57;;;;;;;15.92;71.07;99676.72;5051299;28;20687;-71
2022/10/31 00:24:45;;;;;;;0.40;0.40;;;;;;;15.97;70.85;99677.34;5050825;28;20219;-71
2022/10/31 00:27:12;;;;;;;1.27;1.23;;;;;;;16.00;70.94;99679.78;5051163;28;20650;-71
2022/10/31 00:29:40;;;;;;;0.40;0.40;;;;;;;16.01;71.04;99678.88;5050234;28;20200;-72
2022/10/31 00:32:07;;;;;;;0.50;0.50;;;;;;;16.08;70.62;99682.84;5050454;28;20211;-72
2022/10/31 00:34:34;;;;;;;0.53;0.53;;;;;;;16.13;70.68;99692.06;5049852;28;20221;-71
2022/10/31 00:37:00;;;;;;;0.40;0.40;;;;;;;16.19;70.44;99688.31;5050811;28;20669;-71
2022/10/31 00:39:27;;;;;;;0.50;0.50;;;;;;;16.21;70.36;99683.94;5049457;28;20260;-72
2022/10/31 00:41:54;;;;;;;0.63;0.63;;;;;;;16.17;70.52;99692.75;5050664;28;20208;-71
2022/10/31 00:44:21;;;;;;;0.53;0.53;;;;;;;16.16;70.82;99680.72;5050581;28;20206;-71
2022/10/31 00:46:49;;;;;;;0.60;0.60;;;;;;;16.16;70.55;99683.31;5050635;28;20196;-71
2022/10/31 00:49:16;;;;;;;0.50;0.50;;;;;;;16.18;70.71;99684.09;5050236;28;20206;-71
2022/10/31 00:51:43;;;;;;;0.63;0.63;;;;;;;16.25;70.38;99686.28;5049299;28;20748;-72
2022/10/31 00:54:10;;;;;;;0.60;0.60;;;;;;;16.18;70.29;99674.59;5050664;28;20271;-71
2022/10/31 00:56:36;;;;;;;0.60;0.60;;;;;;;16.27;70.41;99692.22;5050832;28;20188;-72
2022/10/31 00:59:03;;;;;;;0.60;0.60;;;;;;;16.31;70.29;99685.16;5050013;28;20330;-71
2022/10/31 01:01:30;;;;;;;2.30;2.20;;;;;;;16.38;69.93;99678.75;5050420;28;20549;-71
2022/10/31 01:03:58;;;;;;;0.50;0.50;;;;;;;16.33;69.97;99672.97;5048999;28;20201;-72
2022/10/31 01:06:25;;;;;;;0.50;0.50;;;;;;;16.44;70.17;99686.25;5050690;28;20193;-72
2022/10/31 01:08:52;;;;;;;0.50;0.50;;;;;;;16.48;69.69;99694.69;5050383;28;20200;-72
2022/10/31 01:11:20;;;;;;;0.60;0.60;;;;;;;16.44;69.39;99681.06;5050221;28;20212;-71
2022/10/31 01:13:48;;;;;;;0.50;0.50;;;;;;;16.64;68.77;99688.69;5054032;28;20240;-71
2022/10/31 01:16:17;;;;;;;0.53;0.53;;;;;;;16.64;68.78;99686.09;5054076;28;20627;-71
2022/10/31 01:18:44;;;;;;;0.50;0.50;;;;;;;16.66;68.75;99686.88;5054321;28;20200;-72
2022/10/31 01:21:15;;;;;;;0.50;0.50;;;;;;;16.68;67.96;99679.84;5052854;28;20287;-71
2022/10/31 01:23:42;;;;;;;0.50;0.50;;;;;;;16.73;67.84;99672.72;5054291;28;20250;-71
2022/10/31 01:26:12;;;;;;;0.50;0.50;;;;;;;16.68;67.79;99655.72;5053925;28;20572;-71
2022/10/31 01:28:40;;;;;;;0.60;0.60;;;;;;;16.72;68.12;99668.44;5053948;28;20270;-71
2022/10/31 01:31:09;;;;;;;0.67;0.67;;;;;;;16.74;67.71;99673.53;5053081;28;20196;-72
2022/10/31 01:33:37;;;;;;;0.50;0.50;;;;;;;16.66;67.96;99660.97;5053550;28;20196;-72
2022/10/31 01:36:15;;;;;;;0.40;0.40;;;;;;;16.78;67.56;99673.31;5052820;28;20227;-72
2022/10/31 01:38:42;;;;;;;0.50;0.50;;;;;;;16.78;67.70;99673.31;5053812;28;20208;-72
2022/10/31 01:41:11;;;;;;;0.50;0.50;;;;;;;16.81;67.06;99680.06;5054231;28;20197;-72
2022/10/31 01:43:51;;;;;;;0.50;0.50;;;;;;;16.86;66.87;99674.66;5050622;28;20638;-71
2022/10/31 01:46:22;;;;;;;0.50;0.50;;;;;;;16.85;67.08;99671.22;5053102;28;20215;-72
2022/10/31 01:48:50;;;;;;;0.50;0.50;;;;;;;16.92;66.40;99670.00;5052851;28;20211;-72
2022/10/31 01:51:23;;;;;;;0.60;0.60;;;;;;;16.97;66.33;99680.94;5053277;28;20221;-72
2022/10/31 01:53:56;;;;;;;0.50;0.50;;;;;;;16.98;65.92;99674.03;5053430;28;20200;-72
2022/10/31 01:56:23;;;;;;;0.60;0.60;;;;;;;16.97;66.28;99675.78;5052880;28;20282;-72
2022/10/31 01:58:50;;;;;;;0.67;0.67;;;;;;;16.96;66.11;99676.72;5053710;28;20209;-72
2022/10/31 02:01:18;;;;;;;0.53;0.53;;;;;;;16.81;66.14;99633.47;5053554;28;20205;-71
2022/10/31 02:03:47;;;;;;;0.50;0.50;;;;;;;16.97;65.98;99643.84;5053489;28;20250;-71
2022/10/31 02:06:28;;;;;;;0.47;0.47;;;;;;;16.96;66.18;99656.00;5053519;28;20195;-71
2022/10/31 02:08:56;;;;;;;0.47;0.47;;;;;;;17.02;65.96;99657.41;5052796;28;20207;-72
2022/10/31 02:11:23;;;;;;;0.50;0.50;;;;;;;16.97;66.16;99654.22;5053291;28;20298;-71
2022/10/31 02:13:50;;;;;;;0.43;0.43;;;;;;;16.97;65.80;99649.88;5053315;28;20604;-71
2022/10/31 02:16:17;;;;;;;0.63;0.63;;;;;;;16.96;66.37;99647.38;5052957;28;20609;-72
2022/10/31 02:18:44;;;;;;;2.10;1.00;;;;;;;16.94;66.32;99650.03;5051522;28;20204;-71
2022/10/31 02:21:20;;;;;;;0.40;0.40;;;;;;;16.97;66.00;99655.06;5053104;28;20209;-72
2022/10/31 02:24:28;;;;;;;0.50;0.50;;;;;;;16.89;66.15;99638.25;5053108;28;20220;-72
2022/10/31 02:27:01;;;;;;;0.50;0.50;;;;;;;16.96;66.19;99648.22;5052792;28;20623;-71
2022/10/31 02:30:02;;;;;;;0.60;0.60;;;;;;;16.95;66.29;99656.06;5052624;28;20201;-71
2022/10/31 02:32:38;;;;;;;0.77;0.77;;;;;;;16.90;66.57;99647.69;5052879;28;20203;-71
2022/10/31 02:35:13;;;;;;;0.60;0.60;;;;;;;16.94;66.15;99649.19;5051309;28;20216;-71
2022/10/31 02:37:50;;;;;;;0.53;0.53;;;;;;;16.93;65.75;99661.28;5052824;28;20203;-72
2022/10/31 02:40:24;;;;;;;0.50;0.50;;;;;;;16.98;65.49;99656.72;5053149;28;20208;-72
2022/10/31 02:43:00;;;;;;;0.60;0.60;;;;;;;17.02;65.42;99658.25;5052270;28;20266;-72
2022/10/31 02:45:31;;;;;;;0.50;0.50;;;;;;;17.03;65.18;99666.84;5052905;28;20193;-72
2022/10/31 02:48:08;;;;;;;0.50;0.50;;;;;;;17.04;65.43;99659.00;5052522;28;20201;-72
2022/10/31 02:50:38;;;;;;;0.53;0.53;;;;;;;17.04;65.16;99660.75;5052481;28;20215;-72
2022/10/31 02:53:05;;;;;;;0.60;0.60;;;;;;;16.98;65.20;99650.72;5052221;28;20204;-72
2022/10/31 02:55:59;;;;;;;0.50;0.50;;;;;;;17.09;64.91;99663.97;5052405;28;20212;-72
2022/10/31 02:58:30;;;;;;;0.93;0.93;;;;;;;17.10;65.04;99671.63;5050105;28;20251;-72
2022/10/31 03:01:40;;;;;;;0.53;0.53;;;;;;;17.10;65.00;99673.38;5052231;28;20200;-71
2022/10/31 03:04:44;;;;;;;0.40;0.40;;;;;;;17.12;64.73;99679.34;5052273;28;20215;-72
2022/10/31 03:07:21;;;;;;;0.40;0.40;;;;;;;17.13;64.92;99686.16;5047514;28;20208;-72
2022/10/31 03:10:00;;;;;;;0.60;0.60;;;;;;;17.19;64.58;99676.31;5051916;28;20200;-72
2022/10/31 03:12:31;;;;;;;0.50;0.50;;;;;;;16.94;64.68;99638.84;5052374;28;20200;-72
2022/10/31 03:15:10;;;;;;;0.50;0.50;;;;;;;17.26;64.33;99684.59;5052261;28;20229;-72
2022/10/31 03:17:43;;;;;;;0.50;0.50;;;;;;;17.34;63.96;99685.06;5049441;28;20569;-72
2022/10/31 03:20:11;;;;;;;0.57;0.57;;;;;;;17.38;63.65;99696.94;5052009;28;20216;-72
2022/10/31 03:22:41;;;;;;;0.60;0.60;;;;;;;17.42;63.70;99713.97;5049819;28;20204;-72
2022/10/31 03:25:09;;;;;;;0.47;0.47;;;;;;;17.44;63.25;99701.78;5052281;28;20196;-72
2022/10/31 03:27:38;;;;;;;0.40;0.40;;;;;;;17.45;63.21;99711.22;5050862;28;20703;-72
2022/10/31 03:30:08;;;;;;;0.60;0.60;;;;;;;17.49;63.27;99714.50;5051292;28;20215;-72
2022/10/31 03:32:39;;;;;;;0.57;0.57;;;;;;;17.47;63.13;99722.38;5050608;28;20205;-72
2022/10/31 03:35:09;;;;;;;0.67;0.67;;;;;;;17.44;63.40;99716.50;5050907;28;20233;-72
2022/10/31 03:37:40;;;;;;;0.53;0.53;;;;;;;17.48;63.46;99718.84;5052061;28;20274;-72
2022/10/31 03:40:09;;;;;;;0.50;0.50;;;;;;;17.47;63.02;99722.38;5051160;28;20255;-72
2022/10/31 03:42:41;;;;;;;0.60;0.60;;;;;;;17.37;63.07;99700.44;5051821;28;20588;-72
2022/10/31 03:45:13;;;;;;;0.50;0.50;;;;;;;17.43;62.63;99725.19;5051475;28;20211;-72
2022/10/31 03:47:42;;;;;;;0.50;0.50;;;;;;;17.42;62.70;99734.72;5050756;28;20283;-72
2022/10/31 03:50:11;;;;;;;0.40;0.40;;;;;;;17.38;63.07;99728.03;5050405;28;20200;-72
2022/10/31 03:52:44;;;;;;;0.50;0.50;;;;;;;17.33;63.34;99730.03;5050123;28;20208;-72
2022/10/31 03:55:17;;;;;;;0.40;0.40;;;;;;;17.35;62.95;99738.53;5051652;28;20770;-73
2022/10/31 03:57:52;;;;;;;0.50;0.50;;;;;;;17.32;63.20;99730.94;5051547;28;20193;-72
2022/10/31 04:00:20;;;;;;;0.50;0.50;;;;;;;17.26;63.45;99728.66;5048081;28;20204;-72
2022/10/31 04:02:52;;;;;;;0.40;0.40;;;;;;;17.24;63.79;99730.50;5050071;28;20204;-73
2022/10/31 04:05:21;;;;;;;0.50;0.50;;;;;;;17.18;63.60;99725.66;5051319;28;20596;-72
2022/10/31 04:07:55;;;;;;;0.60;0.60;;;;;;;17.16;64.03;99727.47;5051575;28;20723;-72
2022/10/31 04:10:24;;;;;;;0.50;0.50;;;;;;;17.13;63.98;99740.56;5050939;28;20208;-72
2022/10/31 04:12:56;;;;;;;0.70;0.70;;;;;;;17.09;64.50;99733.91;5050680;28;20224;-72
2022/10/31 04:15:25;;;;;;;0.50;0.50;;;;;;;17.07;64.26;99738.31;5049626;28;20225;-72
2022/10/31 04:17:54;;;;;;;0.70;0.70;;;;;;;17.04;64.81;99733.28;5051464;28;20420;-72
2022/10/31 04:20:31;;;;;;;0.60;0.60;;;;;;;16.97;64.92;99734.50;5050671;28;20250;-72
2022/10/31 04:23:00;;;;;;;0.73;0.73;;;;;;;16.91;65.20;99733.06;5051148;28;20220;-72
2022/10/31 04:25:26;;;;;;;0.50;0.50;;;;;;;16.91;65.17;99737.41;5047053;28;20193;-73
2022/10/31 04:27:53;;;;;;;0.50;0.50;;;;;;;16.84;65.35;99736.88;5050710;28;20677;-72
2022/10/31 04:30:20;;;;;;;0.40;0.40;;;;;;;16.76;66.05;99739.03;5049430;28;20209;-72
2022/10/31 04:32:47;;;;;;;1.03;1.03;;;;;;;16.73;66.29;99744.34;5050338;28;20212;-71
2022/10/31 04:35:14;;;;;;;0.43;0.43;;;;;;;16.63;66.50;99733.63;5050377;28;20196;-72
2022/10/31 04:37:40;;;;;;;0.33;0.33;;;;;;;16.50;66.97;99727.34;5050704;28;20208;-72
2022/10/31 04:40:10;;;;;;;0.60;0.60;;;;;;;16.48;67.08;99739.50;5050506;28;20199;-72
2022/10/31 04:42:37;;;;;;;0.43;0.43;;;;;;;16.46;67.58;99754.28;5049312;28;20613;-72
2022/10/31 04:45:04;;;;;;;0.47;0.47;;;;;;;16.46;67.60;99756.84;5050079;28;20205;-72
2022/10/31 04:47:32;;;;;;;0.50;0.50;;;;;;;16.43;67.76;99762.19;5049908;28;20208;-72
2022/10/31 04:49:59;;;;;;;0.60;0.60;;;;;;;16.37;68.25;99767.66;5050488;28;20197;-72
2022/10/31 04:52:25;;;;;;;0.60;0.60;;;;;;;16.35;68.11;99773.81;5050159;28;20229;-72
2022/10/31 04:54:52;;;;;;;0.60;0.60;;;;;;;16.37;68.26;99772.84;5045740;28;20208;-72
2022/10/31 04:57:20;;;;;;;0.43;0.43;;;;;;;16.38;68.12;99778.84;5049411;28;20220;-72
2022/10/31 04:59:47;;;;;;;0.77;0.77;;;;;;;16.36;68.37;99784.09;5049173;28;20262;-72
2022/10/31 05:02:14;;;;;;;0.40;0.40;;;;;;;16.37;68.54;99788.38;5050358;28;20206;-72
2022/10/31 05:04:41;;;;;;;0.50;0.50;;;;;;;16.42;68.30;99791.56;5049981;28;20687;-73
2022/10/31 05:07:08;;;;;;;0.40;0.40;;;;;;;16.40;68.29;99788.22;5049767;28;20254;-72
2022/10/31 05:09:34;;;;;;;0.70;0.70;;;;;;;16.48;68.33;99801.59;5049953;28;20667;-73
2022/10/31 05:12:01;;;;;;;0.53;0.53;;;;;;;16.45;68.48;99799.16;5049903;28;20584;-72
2022/10/31 05:14:29;;;;;;;0.50;0.50;;;;;;;16.49;68.28;99798.13;5049743;28;20232;-72
2022/10/31 05:16:56;;;;;;;0.50;0.50;;;;;;;16.48;68.23;99796.44;5048323;28;20274;-72
2022/10/31 05:19:23;;;;;;;0.50;0.50;;;;;;;16.52;68.38;99803.16;5050055;28;20215;-72
2022/10/31 05:21:49;;;;;;;0.47;0.47;;;;;;;16.52;68.77;99808.31;5049196;28;20267;-72
2022/10/31 05:24:16;;;;;;;0.43;0.43;;;;;;;16.52;68.35;99817.84;5048559;28;20259;-72
2022/10/31 05:26:43;;;;;;;0.50;0.50;;;;;;;16.52;67.97;99813.50;5048894;28;20204;-72
2022/10/31 05:29:10;;;;;;;0.60;0.60;;;;;;;16.55;68.66;99815.97;5049931;28;20200;-72
2022/10/31 05:31:38;;;;;;;0.53;0.53;;;;;;;16.59;68.51;99820.09;5048827;28;20657;-72
2022/10/31 05:34:05;;;;;;;0.50;0.50;;;;;;;16.61;68.26;99820.84;5048646;28;20653;-72
2022/10/31 05:36:32;;;;;;;0.40;0.40;;;;;;;16.66;68.46;99821.47;5049779;28;20639;-73
2022/10/31 05:38:58;;;;;;;0.50;0.50;;;;;;;16.62;68.30;99819.94;5049121;28;20266;-72
2022/10/31 05:41:25;;;;;;;0.40;0.40;;;;;;;16.64;68.44;99822.47;5049101;28;20284;-72
2022/10/31 05:43:52;;;;;;;0.40;0.40;;;;;;;16.59;68.79;99824.44;5049569;28;20258;-71
2022/10/31 05:46:19;;;;;;;0.50;0.50;;;;;;;16.59;68.76;99825.28;5052518;28;20201;-77
2022/10/31 05:48:47;;;;;;;0.53;0.53;;;;;;;16.57;69.29;99827.13;5050483;28;20668;-73
2022/10/31 05:51:14;;;;;;;0.50;0.50;;;;;;;16.57;69.26;99829.69;5049168;28;20262;-72
2022/10/31 05:53:40;;;;;;;1.00;1.00;;;;;;;16.59;68.92;99839.97;5049271;28;20255;-72
2022/10/31 05:56:08;;;;;;;0.60;0.60;;;;;;;16.56;68.93;99835.78;5049668;28;20232;-72
2022/10/31 05:58:34;;;;;;;0.47;0.47;;;;;;;16.58;69.22;99843.44;5051764;28;20207;-71
2022/10/31 06:01:01;;;;;;;0.60;0.60;;;;;;;16.59;69.25;99843.41;5052910;28;20201;-72
2022/10/31 06:03:28;;;;;;;0.50;0.50;;;;;;;16.60;69.17;99852.84;5053043;28;20200;-72
2022/10/31 06:05:56;;;;;;;0.77;0.77;;;;;;;16.63;69.12;99852.69;5053590;28;20201;-72
2022/10/31 06:08:23;;;;;;;0.77;0.77;;;;;;;16.55;69.06;99841.84;5053668;28;20200;-72
2022/10/31 06:10:50;;;;;;;0.60;0.60;;;;;;;16.66;69.13;99851.72;5053919;28;20297;-72
2022/10/31 06:13:16;;;;;;;0.40;0.40;;;;;;;16.67;69.47;99861.16;5053376;28;20282;-72
2022/10/31 06:15:43;;;;;;;0.50;0.50;;;;;;;16.67;69.65;99861.97;5053208;28;20208;-71
2022/10/31 06:18:10;;;;;;;0.43;0.43;;;;;;;16.62;69.80;99848.41;5053826;28;20197;-72
2022/10/31 06:20:37;;;;;;;0.50;0.50;;;;;;;16.68;70.20;99848.13;5052394;28;20602;-72
2022/10/31 06:23:06;;;;;;;0.57;0.57;;;;;;;16.85;69.77;99867.19;5052761;28;20204;-71
2022/10/31 06:25:33;;;;;;;0.40;0.40;;;;;;;16.94;69.29;99864.16;5051637;28;20668;-72
2022/10/31 06:27:59;;;;;;;0.50;0.50;;;;;;;17.02;69.10;99870.66;5050230;28;20227;-73
2022/10/31 06:30:26;;;;;;;0.50;0.50;;;;;;;17.12;68.83;99868.44;5053049;28;20230;-74
2022/10/31 06:32:53;;;;;;;0.50;0.50;;;;;;;17.24;67.98;99876.44;5052919;28;20200;-72
2022/10/31 06:35:20;;;;;;;0.47;0.47;;;;;;;17.37;68.00;99876.66;5051131;28;20201;-70
2022/10/31 06:37:52;;;;;;;0.30;0.30;;;;;;;17.47;67.37;99883.06;5052451;28;20712;-70
2022/10/31 06:40:20;;;;;;;0.93;0.93;;;;;;;17.56;67.30;99881.78;5052232;28;20644;-76
2022/10/31 06:42:47;;;;;;;0.50;0.50;;;;;;;17.66;66.93;99886.44;5052913;28;20231;-72
2022/10/31 06:45:14;;;;;;;0.87;0.87;;;;;;;17.67;67.40;99887.28;5052511;28;20196;-68
2022/10/31 06:47:41;;;;;;;0.50;0.50;;;;;;;17.76;66.79;99885.06;5052279;28;20199;-70
2022/10/31 06:50:09;;;;;;;0.40;0.40;;;;;;;17.78;66.29;99883.19;5051318;28;20591;-70
2022/10/31 06:52:35;;;;;;;0.60;0.60;;;;;;;17.88;66.72;99883.56;5048490;28;20213;-76
2022/10/31 06:55:02;;;;;;;0.50;0.50;;;;;;;17.95;66.67;99882.31;5050145;28;20213;-70
2022/10/31 06:57:30;;;;;;;0.50;0.50;;;;;;;18.06;66.31;99886.97;5044117;28;20213;-73
2022/10/31 06:59:57;;;;;;;0.70;0.70;;;;;;;18.17;66.45;99884.63;5048685;28;20270;-71
2022/10/31 07:02:24;;;;;;;0.50;0.50;;;;;;;18.42;65.03;99889.34;5048193;28;20204;-73
2022/10/31 07:04:51;;;;;;;0.30;0.30;;;;;;;18.57;64.43;99886.78;5049422;28;20576;-72
2022/10/31 07:07:20;;;;;;;0.50;0.50;;;;;;;18.70;64.29;99885.16;5049375;28;20205;-73
2022/10/31 07:09:47;;;;;;;0.90;0.90;;;;;;;18.89;63.27;99884.97;5049269;28;20659;-72
2022/10/31 07:12:14;;;;;;;0.40;0.40;;;;;;;18.91;63.17;99872.72;5050540;28;20200;-74
2022/10/31 07:14:42;;;;;;;0.60;0.60;;;;;;;19.07;62.89;99883.91;5050138;28;20246;-74
2022/10/31 07:17:09;;;;;;;0.47;0.47;;;;;;;19.15;62.48;99876.53;5046464;28;20226;-75
2022/10/31 07:19:36;;;;;;;0.40;0.40;;;;;;;19.31;62.35;99868.69;5047321;28;20218;-74
2022/10/31 07:22:03;;;;;;;0.50;0.50;;;;;;;19.52;61.82;99883.03;5049802;28;20205;-75
2022/10/31 07:24:30;;;;;;;0.40;0.40;;;;;;;19.75;60.46;99882.50;5050852;28;20209;-74
2022/10/31 07:26:57;;;;;;;0.50;0.50;;;;;;;19.96;59.91;99879.53;5046977;28;20290;-74
2022/10/31 07:29:23;;;;;;;0.43;0.43;;;;;;;20.13;59.50;99881.97;5050474;28;20197;-74
2022/10/31 07:31:52;;;;;;;0.40;0.40;;;;;;;20.32;59.04;99887.72;5050827;28;20320;-74
2022/10/31 07:34:19;;;;;;;0.43;0.43;;;;;;;20.45;58.92;99886.03;5050787;28;20669;-72
2022/10/31 07:36:46;;;;;;;0.40;0.40;;;;;;;20.65;57.96;99888.19;5050155;28;20220;-75
2022/10/31 07:39:12;;;;;;;0.40;0.40;;;;;;;20.82;57.42;99882.75;5050139;28;20253;-75
2022/10/31 07:41:39;;;;;;;0.50;0.50;;;;;;;21.01;56.36;99886.75;5050827;28;20207;-75
2022/10/31 07:44:06;;;;;;;0.37;0.37;;;;;;;21.14;56.99;99885.03;5051006;28;20686;-75
2022/10/31 07:46:33;;;;;;;0.50;0.50;;;;;;;21.31;56.38;99882.16;5051193;28;20651;-77
2022/10/31 07:49:01;;;;;;;0.40;0.40;;;;;;;21.50;55.42;99882.59;5050817;28;20198;-75
2022/10/31 07:51:28;;;;;;;0.30;0.30;;;;;;;21.69;54.87;99880.41;5050472;28;20642;-74
2022/10/31 07:53:54;;;;;;;0.77;0.77;;;;;;;21.86;54.03;99882.72;5050326;28;20234;-74
2022/10/31 07:56:21;;;;;;;0.40;0.40;;;;;;;22.07;53.24;99879.59;5050000;28;20223;-74
2022/10/31 07:58:48;;;;;;;0.20;0.20;;;;;;;22.24;52.92;99881.84;5043330;28;20208;-76
2022/10/31 08:01:15;;;;;;;0.20;0.20;;;;;;;22.41;52.17;99884.13;5047454;28;20211;-75
2022/10/31 08:03:41;;;;;;;0.40;0.40;;;;;;;22.65;50.89;99876.31;5045522;28;20234;-72
2022/10/31 08:06:10;;;;;;;0.40;0.40;;;;;;;22.79;51.07;99878.78;5047349;28;20201;-73
2022/10/31 08:08:37;;;;;;;0.30;0.30;;;;;;;22.93;50.64;99871.59;5047715;28;20346;-72
2022/10/31 08:11:04;;;;;;;0.40;0.40;;;;;;;23.12;50.06;99880.69;5043104;28;20214;-72
2022/10/31 08:13:30;;;;;;;0.30;0.30;;;;;;;23.26;50.10;99880.50;5048779;28;20298;-71
2022/10/31 08:16:03;;;;;;;0.30;0.30;;;;;;;23.41;49.03;99879.38;5049593;28;20203;-73
2022/10/31 08:18:30;;;;;;;0.40;0.40;;;;;;;23.49;48.28;99861.31;5048423;28;20215;-73
2022/10/31 08:20:57;;;;;;;0.30;0.30;;;;;;;23.65;48.10;99882.75;5046622;28;20251;-72
2022/10/31 08:23:25;;;;;;;0.30;0.30;;;;;;;23.78;47.44;99886.09;5049537;28;20591;-72
2022/10/31 08:25:52;;;;;;;0.77;0.77;;;;;;;23.89;46.96;99883.50;5048221;28;20661;-73
2022/10/31 08:28:19;;;;;;;0.20;0.20;;;;;;;24.11;47.09;99887.03;5049971;28;20201;-72
2022/10/31 08:30:47;;;;;;;0.30;0.30;;;;;;;24.34;46.63;99888.72;5051737;28;20212;-71
2022/10/31 08:33:15;;;;;;;0.23;0.23;;;;;;;24.49;47.71;99890.97;5046980;28;20200;-72
2022/10/31 08:35:42;;;;;;;0.27;0.27;;;;;;;24.76;45.38;99881.84;5049821;28;20258;-72
2022/10/31 08:38:10;;;;;;;0.30;0.30;;;;;;;24.79;44.18;99889.47;5049585;28;20231;-73
2022/10/31 08:40:39;;;;;;;0.50;0.50;;;;;;;24.72;45.25;99878.63;5049664;28;20219;-71
2022/10/31 08:43:09;;;;;;;0.40;0.40;;;;;;;24.88;44.48;99879.09;5049871;28;20213;-72
2022/10/31 08:45:36;;;;;;;0.87;0.87;;;;;;;24.91;45.43;99883.28;5054879;28;20207;-72
2022/10/31 08:48:05;;;;;;;0.30;0.30;;;;;;;24.80;44.91;99876.22;5051219;28;20207;-72
2022/10/31 08:50:33;;;;;;;0.30;0.30;;;;;;;24.74;44.60;99887.22;5049438;28;20205;-71
2022/10/31 08:53:04;;;;;;;0.20;0.20;;;;;;;24.62;44.95;99888.19;5050146;28;20215;-71
2022/10/31 08:55:31;;;;;;;0.40;0.40;;;;;;;24.69;45.03;99899.84;5048951;28;20227;-72
2022/10/31 08:57:59;;;;;;;0.30;0.30;;;;;;;24.71;44.87;99890.09;5051706;28;20224;-72
2022/10/31 09:00:26;;;;;;;0.23;0.23;;;;;;;24.90;46.21;99886.84;5049972;28;20208;-72
2022/10/31 09:02:57;;;;;;;0.30;0.30;;;;;;;24.92;45.68;99891.00;5052098;28;20214;-71
2022/10/31 09:05:24;;;;;;;0.60;0.60;;;;;;;24.99;45.43;99891.31;5049288;28;20223;-71
2022/10/31 09:07:51;;;;;;;0.30;0.30;;;;;;;25.04;44.58;99884.75;5050805;28;20206;-71
2022/10/31 09:10:18;;;;;;;0.30;0.30;;;;;;;25.17;43.48;99891.63;5050768;28;20201;-71
2022/10/31 09:12:44;;;;;;;0.30;0.30;;;;;;;25.16;44.13;99892.56;5041539;28;20248;-71
2022/10/31 09:15:12;;;;;;;0.27;0.27;;;;;;;25.23;43.50;99889.31;5048767;28;20193;-71
2022/10/31 09:17:39;;;;;;;0.33;0.33;;;;;;;25.31;43.97;99883.41;5048596;28;20278;-71
2022/10/31 09:20:06;;;;;;;0.40;0.40;;;;;;;25.46;44.62;99882.16;5045005;28;20205;-71
2022/10/31 09:22:33;;;;;;;0.30;0.30;;;;;;;25.58;43.17;99883.78;5045086;28;20200;-71
2022/10/31 09:25:00;;;;;;;0.27;0.27;;;;;;;25.64;42.67;99888.50;5049170;28;20196;-71
2022/10/31 09:27:28;;;;;;;0.20;0.20;;;;;;;25.72;41.93;99885.25;5048980;28;20283;-71
2022/10/31 09:29:54;;;;;;;0.30;0.30;;;;;;;25.75;41.99;99885.78;5047043;28;20200;-71
2022/10/31 09:32:23;;;;;;;0.20;0.20;;;;;;;25.70;42.75;99882.72;5046732;28;20212;-72
2022/10/31 09:34:50;;;;;;;0.40;0.40;;;;;;;25.69;41.78;99880.25;5052022;28;20215;-72
2022/10/31 09:37:17;;;;;;;0.57;0.57;;;;;;;25.77;41.64;99889.13;5056587;28;20259;-72
2022/10/31 09:39:43;;;;;;;0.50;0.50;;;;;;;25.83;41.15;99887.75;5054091;28;20208;-71
2022/10/31 09:42:35;;;;;;;0.40;0.40;;;;;;;25.89;43.51;99881.97;5052843;28;20205;-70
2022/10/31 09:45:08;;;;;;;0.20;0.20;;;;;;;25.94;41.73;99879.81;5053164;28;20616;-71
2022/10/31 09:47:51;;;;;;;0.30;0.30;;;;;;;25.97;42.06;99875.13;5052723;28;20200;-71
2022/10/31 09:50:22;;;;;;;0.37;0.37;;;;;;;26.06;41.06;99879.59;5050075;28;20657;-72
2022/10/31 09:52:57;;;;;;;0.30;0.30;;;;;;;26.04;42.15;99878.06;5045180;28;20213;-72
2022/10/31 09:55:36;;;;;;;0.20;0.20;;;;;;;26.06;41.41;99874.31;5053238;28;20208;-72
2022/10/31 09:58:03;;;;;;;0.30;0.30;;;;;;;26.09;41.14;99881.09;5053046;28;20227;-72
2022/10/31 10:00:31;;;;;;;0.23;0.23;;;;;;;26.18;42.01;99875.06;5050723;28;20584;-71
2022/10/31 10:03:09;;;;;;;0.30;0.30;;;;;;;26.18;41.02;99877.69;5052321;28;20200;-70
2022/10/31 10:05:44;;;;;;;0.20;0.20;;;;;;;26.12;39.88;99865.06;5051248;28;20200;-71
2022/10/31 10:08:15;;;;;;;0.30;0.30;;;;;;;26.18;39.33;99871.63;5051894;28;20201;-70
2022/10/31 10:10:50;;;;;;;0.20;0.20;;;;;;;26.14;39.95;99843.94;5054358;28;20209;-71
2022/10/31 10:13:37;;;;;;;0.33;0.33;;;;;;;26.27;40.41;99855.88;5050597;28;20236;-71
2022/10/31 10:16:15;;;;;;;0.20;0.20;;;;;;;26.24;40.48;99860.56;5046445;28;20208;-71
2022/10/31 10:19:01;;;;;;;0.30;0.30;;;;;;;26.33;40.02;99857.16;5049239;28;20223;-71
2022/10/31 10:21:42;;;;;;;0.20;0.20;;;;;;;26.38;39.84;99853.13;5050570;28;20268;-71
2022/10/31 10:24:36;;;;;;;0.40;0.40;;;;;;;26.40;39.92;99855.63;5049338;28;20254;-71
2022/10/31 10:27:12;;;;;;;0.20;0.20;;;;;;;26.31;39.79;99853.81;5049555;28;20204;-71
2022/10/31 10:29:45;;;;;;;0.30;0.30;;;;;;;26.25;39.92;99822.81;5041024;28;20723;-68
2022/10/31 10:32:19;;;;;;;0.23;0.23;;;;;;;26.51;40.93;99837.09;5046834;28;20207;-72
2022/10/31 10:34:51;;;;;;;0.30;0.30;;;;;;;26.57;40.59;99834.75;5051922;28;20254;-72
2022/10/31 10:37:27;;;;;;;0.20;0.20;;;;;;;26.67;39.96;99837.41;5051626;28;20291;-72
2022/10/31 10:40:01;;;;;;;0.30;0.30;;;;;;;26.68;40.48;99833.81;5051030;28;20199;-72
2022/10/31 10:48:09;;;;;;;0.30;0.30;;;;;;;26.85;40.70;99824.41;5050215;28;20200;-72
2022/10/31 10:50:43;;;;;;;0.20;0.20;;;;;;;26.87;38.77;99833.84;5048216;28;20204;-71
2022/10/31 10:53:31;;;;;;;0.20;0.20;;;;;;;26.80;38.58;99822.16;5049206;28;20642;-73
2022/10/31 10:56:03;;;;;;;0.40;0.40;;;;;;;26.66;39.58;99824.41;5048869;28;20650;-73
2022/10/31 10:58:30;;;;;;;0.30;0.30;;;;;;;26.71;39.62;99825.63;5048654;28;20219;-76
2022/10/31 11:00:57;;;;;;;0.30;0.30;;;;;;;26.81;40.53;99818.59;5050489;28;20204;-75
2022/10/31 11:03:23;;;;;;;0.20;0.20;;;;;;;26.88;39.45;99819.69;5050243;28;20207;-73
2022/10/31 11:05:53;;;;;;;0.20;0.20;;;;;;;26.88;40.96;99819.69;5050565;28;20196;-73
2022/10/31 11:08:27;;;;;;;0.23;0.23;;;;;;;27.01;39.05;99812.34;5043850;28;20197;-74
2022/10/31 11:10:59;;;;;;;0.30;0.30;;;;;;;27.12;38.33;99806.09;5047084;28;20201;-74
2022/10/31 11:13:27;;;;;;;0.30;0.30;;;;;;;27.14;38.43;99804.97;5048639;28;20224;-71
2022/10/31 11:16:03;;;;;;;0.30;0.30;;;;;;;27.17;37.76;99803.06;5048572;28;20211;-68
2022/10/31 11:18:32;;;;;;;0.10;0.10;;;;;;;27.17;38.07;99803.88;5047066;28;20220;-75
2022/10/31 11:21:04;;;;;;;0.30;0.30;;;;;;;27.02;38.80;99790.31;5049390;28;20212;-75
2022/10/31 11:23:31;;;;;;;0.17;0.17;;;;;;;26.93;38.68;99800.84;5050338;28;20243;-73
2022/10/31 11:26:00;;;;;;;0.20;0.20;;;;;;;26.88;37.96;99798.63;5049739;28;20573;-73
2022/10/31 11:28:29;;;;;;;0.20;0.20;;;;;;;26.87;38.10;99801.44;5050471;28;20631;-72
2022/10/31 11:30:58;;;;;;;0.20;0.20;;;;;;;26.93;38.07;99795.59;5050840;28;20220;-74
2022/10/31 11:33:30;;;;;;;0.20;0.20;;;;;;;26.98;38.87;99788.94;5048899;28;20204;-73
2022/10/31 11:35:58;;;;;;;0.30;0.30;;;;;;;26.99;38.28;99793.25;5048699;28;20585;-73
2022/10/31 11:38:32;;;;;;;0.20;0.20;;;;;;;26.97;37.70;99787.28;5049451;28;20221;-74
2022/10/31 11:41:05;;;;;;;0.20;0.20;;;;;;;26.87;37.99;99789.09;5047968;28;20714;-74
2022/10/31 11:43:32;;;;;;;0.20;0.20;;;;;;;26.87;38.08;99775.94;5048442;28;20572;-74
2022/10/31 11:45:59;;;;;;;0.20;0.20;;;;;;;26.91;38.66;99777.34;5049905;28;20574;-74
2022/10/31 11:48:27;;;;;;;0.20;0.20;;;;;;;26.87;39.36;99777.75;5051533;28;20263;-73
2022/10/31 11:50:56;;;;;;;0.20;0.20;;;;;;;26.84;38.59;99776.22;5049568;28;20204;-71